sensor_id;sensor_type;location;lat;lon;timestamp;temperature;humidity
16827;DHT22;8530;49.540;8.576;2023-06-04T00:02:21;17.70;31.20
16827;DHT22;8530;49.540;8.576;2023-06-04T00:04:48;17.70;31.20
16827;DHT22;8530;49.540;8.576;2023-06-04T00:07:15;17.70;31.10
16827;DHT22;8530;49.540;8.576;2023-06-04T00:09:42;17.70;31.10
16827;DHT22;8530;49.540;8.576;2023-06-04T00:12:09;17.60;31.00
16827;DHT22;8530;49.540;8.576;2023-06-04T00:14:36;17.60;31.00
16827;DHT22;8530;49.540;8.576;2023-06-04T00:17:03;17.50;30.90
16827;DHT22;8530;49.540;8.576;2023-06-04T00:19:31;17.50;30.90
16827;DHT22;8530;49.540;8.576;2023-06-04T00:21:59;17.40;30.90
16827;DHT22;8530;49.540;8.576;2023-06-04T00:24:26;17.40;30.90
16827;DHT22;8530;49.540;8.576;2023-06-04T00:26:52;17.40;30.90
16827;DHT22;8530;49.540;8.576;2023-06-04T00:29:19;17.40;30.90
16827;DHT22;8530;49.540;8.576;2023-06-04T00:31:46;17.40;30.90
16827;DHT22;8530;49.540;8.576;2023-06-04T00:34:12;17.40;30.80
16827;DHT22;8530;49.540;8.576;2023-06-04T00:36:40;17.40;30.80
16827;DHT22;8530;49.540;8.576;2023-06-04T00:39:07;17.40;30.80
16827;DHT22;8530;49.540;8.576;2023-06-04T00:41:34;17.30;30.70
16827;DHT22;8530;49.540;8.576;2023-06-04T00:44:00;17.30;30.70
16827;DHT22;8530;49.540;8.576;2023-06-04T00:46:28;17.30;30.70
16827;DHT22;8530;49.540;8.576;2023-06-04T00:48:56;17.30;30.60
16827;DHT22;8530;49.540;8.576;2023-06-04T00:51:23;17.30;30.60
16827;DHT22;8530;49.540;8.576;2023-06-04T00:53:53;17.30;30.60
16827;DHT22;8530;49.540;8.576;2023-06-04T00:56:19;17.20;30.60
16827;DHT22;8530;49.540;8.576;2023-06-04T00:58:46;17.20;30.60
16827;DHT22;8530;49.540;8.576;2023-06-04T01:01:18;17.20;30.50
16827;DHT22;8530;49.540;8.576;2023-06-04T01:03:50;17.20;30.60
16827;DHT22;8530;49.540;8.576;2023-06-04T01:06:22;17.20;30.60
16827;DHT22;8530;49.540;8.576;2023-06-04T01:08:53;17.10;30.50
16827;DHT22;8530;49.540;8.576;2023-06-04T01:11:31;17.10;31.00
16827;DHT22;8530;49.540;8.576;2023-06-04T01:13:58;17.10;30.50
16827;DHT22;8530;49.540;8.576;2023-06-04T01:16:26;17.10;30.50
16827;DHT22;8530;49.540;8.576;2023-06-04T01:18:55;17.20;30.50
16827;DHT22;8530;49.540;8.576;2023-06-04T01:21:23;17.20;30.50
16827;DHT22;8530;49.540;8.576;2023-06-04T01:23:54;17.20;30.40
16827;DHT22;8530;49.540;8.576;2023-06-04T01:26:25;17.20;30.50
16827;DHT22;8530;49.540;8.576;2023-06-04T01:28:53;17.20;30.50
16827;DHT22;8530;49.540;8.576;2023-06-04T01:31:21;17.10;30.40
16827;DHT22;8530;49.540;8.576;2023-06-04T01:33:51;17.10;30.50
16827;DHT22;8530;49.540;8.576;2023-06-04T01:36:17;17.00;30.40
16827;DHT22;8530;49.540;8.576;2023-06-04T01:38:44;16.90;30.40
16827;DHT22;8530;49.540;8.576;2023-06-04T01:41:12;16.90;30.50
16827;DHT22;8530;49.540;8.576;2023-06-04T01:43:39;16.80;30.50
16827;DHT22;8530;49.540;8.576;2023-06-04T01:46:06;16.80;30.60
16827;DHT22;8530;49.540;8.576;2023-06-04T01:48:33;16.80;31.10
16827;DHT22;8530;49.540;8.576;2023-06-04T01:51:00;16.80;30.60
16827;DHT22;8530;49.540;8.576;2023-06-04T01:53:27;16.80;30.60
16827;DHT22;8530;49.540;8.576;2023-06-04T01:55:54;16.80;30.60
16827;DHT22;8530;49.540;8.576;2023-06-04T01:58:23;16.80;30.60
16827;DHT22;8530;49.540;8.576;2023-06-04T02:00:52;16.70;30.50
16827;DHT22;8530;49.540;8.576;2023-06-04T02:03:20;16.80;30.60
16827;DHT22;8530;49.540;8.576;2023-06-04T02:05:47;16.80;30.60
16827;DHT22;8530;49.540;8.576;2023-06-04T02:08:15;16.80;30.50
16827;DHT22;8530;49.540;8.576;2023-06-04T02:10:45;16.70;30.40
16827;DHT22;8530;49.540;8.576;2023-06-04T02:13:12;16.70;30.60
16827;DHT22;8530;49.540;8.576;2023-06-04T02:15:40;16.60;30.60
16827;DHT22;8530;49.540;8.576;2023-06-04T02:18:15;16.50;30.90
16827;DHT22;8530;49.540;8.576;2023-06-04T02:20:42;16.30;31.10
16827;DHT22;8530;49.540;8.576;2023-06-04T02:23:10;16.10;31.10
16827;DHT22;8530;49.540;8.576;2023-06-04T02:25:36;16.00;31.40
16827;DHT22;8530;49.540;8.576;2023-06-04T02:28:03;15.90;31.70
16827;DHT22;8530;49.540;8.576;2023-06-04T02:30:30;15.70;31.80
16827;DHT22;8530;49.540;8.576;2023-06-04T02:32:58;15.60;31.90
16827;DHT22;8530;49.540;8.576;2023-06-04T02:35:26;15.60;32.30
16827;DHT22;8530;49.540;8.576;2023-06-04T02:37:53;15.50;32.50
16827;DHT22;8530;49.540;8.576;2023-06-04T02:40:21;15.40;32.70
16827;DHT22;8530;49.540;8.576;2023-06-04T02:42:48;15.40;33.00
16827;DHT22;8530;49.540;8.576;2023-06-04T02:45:15;15.30;33.20
16827;DHT22;8530;49.540;8.576;2023-06-04T02:47:41;15.20;33.30
16827;DHT22;8530;49.540;8.576;2023-06-04T02:50:10;15.10;33.60
16827;DHT22;8530;49.540;8.576;2023-06-04T02:52:37;14.90;33.70
16827;DHT22;8530;49.540;8.576;2023-06-04T02:55:06;14.80;33.90
16827;DHT22;8530;49.540;8.576;2023-06-04T02:57:34;14.70;34.20
16827;DHT22;8530;49.540;8.576;2023-06-04T03:00:01;14.60;34.40
16827;DHT22;8530;49.540;8.576;2023-06-04T03:02:33;14.50;34.60
16827;DHT22;8530;49.540;8.576;2023-06-04T03:05:00;14.40;34.80
16827;DHT22;8530;49.540;8.576;2023-06-04T03:07:29;14.30;35.10
16827;DHT22;8530;49.540;8.576;2023-06-04T03:09:56;14.30;35.30
16827;DHT22;8530;49.540;8.576;2023-06-04T03:12:23;14.20;36.10
16827;DHT22;8530;49.540;8.576;2023-06-04T03:14:50;14.20;35.80
16827;DHT22;8530;49.540;8.576;2023-06-04T03:17:17;14.10;35.90
16827;DHT22;8530;49.540;8.576;2023-06-04T03:19:43;14.10;36.20
16827;DHT22;8530;49.540;8.576;2023-06-04T03:22:10;14.10;36.40
16827;DHT22;8530;49.540;8.576;2023-06-04T03:24:40;14.10;36.60
16827;DHT22;8530;49.540;8.576;2023-06-04T03:27:08;14.10;36.80
16827;DHT22;8530;49.540;8.576;2023-06-04T03:29:35;14.10;36.90
16827;DHT22;8530;49.540;8.576;2023-06-04T03:32:02;14.10;37.00
16827;DHT22;8530;49.540;8.576;2023-06-04T03:34:29;14.10;37.20
16827;DHT22;8530;49.540;8.576;2023-06-04T03:36:57;14.10;37.20
16827;DHT22;8530;49.540;8.576;2023-06-04T03:39:25;14.10;37.30
16827;DHT22;8530;49.540;8.576;2023-06-04T03:41:53;14.20;37.40
16827;DHT22;8530;49.540;8.576;2023-06-04T03:44:21;14.30;37.60
16827;DHT22;8530;49.540;8.576;2023-06-04T03:46:47;14.30;37.60
16827;DHT22;8530;49.540;8.576;2023-06-04T03:49:14;14.30;37.60
16827;DHT22;8530;49.540;8.576;2023-06-04T03:51:42;14.30;37.60
16827;DHT22;8530;49.540;8.576;2023-06-04T03:54:09;14.40;37.70
16827;DHT22;8530;49.540;8.576;2023-06-04T03:56:37;14.40;37.70
16827;DHT22;8530;49.540;8.576;2023-06-04T03:59:05;14.50;37.80
16827;DHT22;8530;49.540;8.576;2023-06-04T04:01:31;14.50;37.80
16827;DHT22;8530;49.540;8.576;2023-06-04T04:03:58;14.90;37.90
16827;DHT22;8530;49.540;8.576;2023-06-04T04:06:25;15.90;37.90
16827;DHT22;8530;49.540;8.576;2023-06-04T04:08:52;16.50;37.50
16827;DHT22;8530;49.540;8.576;2023-06-04T04:11:19;16.50;37.20
16827;DHT22;8530;49.540;8.576;2023-06-04T04:13:45;16.50;37.10
16827;DHT22;8530;49.540;8.576;2023-06-04T04:16:14;16.40;37.00
16827;DHT22;8530;49.540;8.576;2023-06-04T04:18:42;16.30;36.80
16827;DHT22;8530;49.540;8.576;2023-06-04T04:21:09;16.30;36.70
16827;DHT22;8530;49.540;8.576;2023-06-04T04:23:38;16.20;36.50
16827;DHT22;8530;49.540;8.576;2023-06-04T04:26:05;16.20;36.50
16827;DHT22;8530;49.540;8.576;2023-06-04T04:28:31;16.20;36.40
16827;DHT22;8530;49.540;8.576;2023-06-04T04:30:59;16.20;36.30
16827;DHT22;8530;49.540;8.576;2023-06-04T04:33:29;16.30;36.30
16827;DHT22;8530;49.540;8.576;2023-06-04T04:35:58;16.40;36.30
16827;DHT22;8530;49.540;8.576;2023-06-04T04:38:25;16.40;36.30
16827;DHT22;8530;49.540;8.576;2023-06-04T04:40:54;16.50;36.30
16827;DHT22;8530;49.540;8.576;2023-06-04T04:43:29;16.60;36.20
16827;DHT22;8530;49.540;8.576;2023-06-04T04:45:55;16.70;36.20
16827;DHT22;8530;49.540;8.576;2023-06-04T04:48:22;16.80;36.10
16827;DHT22;8530;49.540;8.576;2023-06-04T04:50:50;16.90;36.00
16827;DHT22;8530;49.540;8.576;2023-06-04T04:53:17;16.90;35.80
16827;DHT22;8530;49.540;8.576;2023-06-04T04:55:44;17.00;35.80
16827;DHT22;8530;49.540;8.576;2023-06-04T04:58:10;17.10;35.70
16827;DHT22;8530;49.540;8.576;2023-06-04T05:00:37;17.30;35.80
16827;DHT22;8530;49.540;8.576;2023-06-04T05:03:04;17.50;35.70
16827;DHT22;8530;49.540;8.576;2023-06-04T05:05:31;17.70;35.70
16827;DHT22;8530;49.540;8.576;2023-06-04T05:07:59;17.90;35.60
16827;DHT22;8530;49.540;8.576;2023-06-04T05:10:26;18.10;35.50
16827;DHT22;8530;49.540;8.576;2023-06-04T05:12:54;18.40;35.40
16827;DHT22;8530;49.540;8.576;2023-06-04T05:15:21;18.60;35.20
16827;DHT22;8530;49.540;8.576;2023-06-04T05:17:48;18.80;35.00
16827;DHT22;8530;49.540;8.576;2023-06-04T05:20:15;19.00;34.70
16827;DHT22;8530;49.540;8.576;2023-06-04T05:22:42;19.10;34.50
16827;DHT22;8530;49.540;8.576;2023-06-04T05:25:12;19.20;34.20
16827;DHT22;8530;49.540;8.576;2023-06-04T05:27:40;19.30;33.90
16827;DHT22;8530;49.540;8.576;2023-06-04T05:30:08;19.40;33.70
16827;DHT22;8530;49.540;8.576;2023-06-04T05:32:35;19.50;33.50
16827;DHT22;8530;49.540;8.576;2023-06-04T05:35:06;19.50;33.20
16827;DHT22;8530;49.540;8.576;2023-06-04T05:37:33;19.80;33.30
16827;DHT22;8530;49.540;8.576;2023-06-04T05:40:01;21.30;33.50
16827;DHT22;8530;49.540;8.576;2023-06-04T05:42:32;23.70;33.40
16827;DHT22;8530;49.540;8.576;2023-06-04T05:44:59;25.90;31.80
16827;DHT22;8530;49.540;8.576;2023-06-04T05:47:27;28.10;30.20
16827;DHT22;8530;49.540;8.576;2023-06-04T05:49:55;30.10;28.50
16827;DHT22;8530;49.540;8.576;2023-06-04T05:52:22;31.70;27.00
16827;DHT22;8530;49.540;8.576;2023-06-04T05:54:49;33.10;25.40
16827;DHT22;8530;49.540;8.576;2023-06-04T05:57:16;34.40;24.00
16827;DHT22;8530;49.540;8.576;2023-06-04T05:59:44;35.30;22.80
16827;DHT22;8530;49.540;8.576;2023-06-04T06:02:11;36.10;21.40
16827;DHT22;8530;49.540;8.576;2023-06-04T06:04:38;36.50;20.70
16827;DHT22;8530;49.540;8.576;2023-06-04T06:07:05;36.40;19.80
16827;DHT22;8530;49.540;8.576;2023-06-04T06:09:32;37.10;19.20
16827;DHT22;8530;49.540;8.576;2023-06-04T06:11:59;38.10;18.40
16827;DHT22;8530;49.540;8.576;2023-06-04T06:14:26;39.00;17.30
16827;DHT22;8530;49.540;8.576;2023-06-04T06:16:54;39.30;16.70
16827;DHT22;8530;49.540;8.576;2023-06-04T06:19:20;39.70;15.90
16827;DHT22;8530;49.540;8.576;2023-06-04T06:21:47;40.10;15.60
16827;DHT22;8530;49.540;8.576;2023-06-04T06:24:14;40.90;14.90
16827;DHT22;8530;49.540;8.576;2023-06-04T06:26:40;41.60;14.30
16827;DHT22;8530;49.540;8.576;2023-06-04T06:29:08;41.90;13.90
16827;DHT22;8530;49.540;8.576;2023-06-04T06:31:34;42.00;13.30
16827;DHT22;8530;49.540;8.576;2023-06-04T06:34:02;42.30;13.00
16827;DHT22;8530;49.540;8.576;2023-06-04T06:36:29;42.20;12.60
16827;DHT22;8530;49.540;8.576;2023-06-04T06:38:56;42.40;12.40
16827;DHT22;8530;49.540;8.576;2023-06-04T06:41:23;42.50;12.10
16827;DHT22;8530;49.540;8.576;2023-06-04T06:43:51;42.90;11.90
16827;DHT22;8530;49.540;8.576;2023-06-04T06:46:18;43.10;11.50
16827;DHT22;8530;49.540;8.576;2023-06-04T06:48:44;43.20;11.30
16827;DHT22;8530;49.540;8.576;2023-06-04T06:51:13;43.50;11.10
16827;DHT22;8530;49.540;8.576;2023-06-04T06:53:40;43.70;10.90
16827;DHT22;8530;49.540;8.576;2023-06-04T06:56:07;43.80;10.60
16827;DHT22;8530;49.540;8.576;2023-06-04T06:58:34;44.20;10.60
16827;DHT22;8530;49.540;8.576;2023-06-04T07:01:01;44.50;10.40
16827;DHT22;8530;49.540;8.576;2023-06-04T07:03:28;44.40;10.30
16827;DHT22;8530;49.540;8.576;2023-06-04T07:05:54;44.70;10.30
16827;DHT22;8530;49.540;8.576;2023-06-04T07:08:22;44.70;10.40
16827;DHT22;8530;49.540;8.576;2023-06-04T07:10:49;45.30;10.30
16827;DHT22;8530;49.540;8.576;2023-06-04T07:13:16;45.80;10.00
16827;DHT22;8530;49.540;8.576;2023-06-04T07:15:43;46.20;9.70
16827;DHT22;8530;49.540;8.576;2023-06-04T07:18:09;46.20;9.30
16827;DHT22;8530;49.540;8.576;2023-06-04T07:20:39;45.50;9.30
16827;DHT22;8530;49.540;8.576;2023-06-04T07:23:05;45.50;9.40
16827;DHT22;8530;49.540;8.576;2023-06-04T07:25:34;45.50;9.20
16827;DHT22;8530;49.540;8.576;2023-06-04T07:28:01;45.40;9.00
16827;DHT22;8530;49.540;8.576;2023-06-04T07:30:29;45.30;8.90
16827;DHT22;8530;49.540;8.576;2023-06-04T07:32:57;44.90;8.90
16827;DHT22;8530;49.540;8.576;2023-06-04T07:35:23;44.90;9.00
16827;DHT22;8530;49.540;8.576;2023-06-04T07:37:50;45.50;9.10
16827;DHT22;8530;49.540;8.576;2023-06-04T07:40:17;45.90;9.00
16827;DHT22;8530;49.540;8.576;2023-06-04T07:42:46;45.80;8.80
16827;DHT22;8530;49.540;8.576;2023-06-04T07:45:13;46.00;8.70
16827;DHT22;8530;49.540;8.576;2023-06-04T07:47:40;45.70;8.50
16827;DHT22;8530;49.540;8.576;2023-06-04T07:50:07;45.50;8.50
16827;DHT22;8530;49.540;8.576;2023-06-04T07:52:34;45.30;8.50
16827;DHT22;8530;49.540;8.576;2023-06-04T07:55:01;45.30;8.40
16827;DHT22;8530;49.540;8.576;2023-06-04T07:57:28;45.40;8.30
16827;DHT22;8530;49.540;8.576;2023-06-04T07:59:56;45.40;8.20
16827;DHT22;8530;49.540;8.576;2023-06-04T08:02:23;45.20;8.10
16827;DHT22;8530;49.540;8.576;2023-06-04T08:04:50;44.50;8.10
16827;DHT22;8530;49.540;8.576;2023-06-04T08:07:16;43.80;8.10
16827;DHT22;8530;49.540;8.576;2023-06-04T08:09:43;43.50;8.20
16827;DHT22;8530;49.540;8.576;2023-06-04T08:12:11;42.90;8.00
16827;DHT22;8530;49.540;8.576;2023-06-04T08:14:37;41.90;8.10
16827;DHT22;8530;49.540;8.576;2023-06-04T08:17:05;40.60;8.20
16827;DHT22;8530;49.540;8.576;2023-06-04T08:19:32;38.80;8.40
16827;DHT22;8530;49.540;8.576;2023-06-04T08:21:59;37.10;8.90
16827;DHT22;8530;49.540;8.576;2023-06-04T08:24:25;35.30;9.40
16827;DHT22;8530;49.540;8.576;2023-06-04T08:26:52;33.60;10.10
16827;DHT22;8530;49.540;8.576;2023-06-04T08:29:19;32.40;10.80
16827;DHT22;8530;49.540;8.576;2023-06-04T08:31:46;31.50;11.50
16827;DHT22;8530;49.540;8.576;2023-06-04T08:34:14;30.80;12.20
16827;DHT22;8530;49.540;8.576;2023-06-04T08:36:40;30.20;12.90
16827;DHT22;8530;49.540;8.576;2023-06-04T08:39:08;29.70;13.50
16827;DHT22;8530;49.540;8.576;2023-06-04T08:41:42;29.30;14.00
16827;DHT22;8530;49.540;8.576;2023-06-04T08:44:09;29.00;14.40
16827;DHT22;8530;49.540;8.576;2023-06-04T08:46:38;28.90;14.70
16827;DHT22;8530;49.540;8.576;2023-06-04T08:49:06;28.70;15.00
16827;DHT22;8530;49.540;8.576;2023-06-04T08:51:36;28.60;15.40
16827;DHT22;8530;49.540;8.576;2023-06-04T08:54:04;28.50;15.80
16827;DHT22;8530;49.540;8.576;2023-06-04T08:56:31;28.40;16.00
16827;DHT22;8530;49.540;8.576;2023-06-04T08:59:00;28.20;16.30
16827;DHT22;8530;49.540;8.576;2023-06-04T09:01:27;28.00;16.60
16827;DHT22;8530;49.540;8.576;2023-06-04T09:03:55;27.90;16.90
16827;DHT22;8530;49.540;8.576;2023-06-04T09:06:24;27.80;17.20
16827;DHT22;8530;49.540;8.576;2023-06-04T09:08:54;27.70;17.30
16827;DHT22;8530;49.540;8.576;2023-06-04T09:11:22;27.70;17.50
16827;DHT22;8530;49.540;8.576;2023-06-04T09:13:51;27.70;17.60
16827;DHT22;8530;49.540;8.576;2023-06-04T09:16:19;27.80;17.90
16827;DHT22;8530;49.540;8.576;2023-06-04T09:18:46;27.80;17.90
16827;DHT22;8530;49.540;8.576;2023-06-04T09:21:13;27.70;17.90
16827;DHT22;8530;49.540;8.576;2023-06-04T09:23:44;27.70;18.10
16827;DHT22;8530;49.540;8.576;2023-06-04T09:26:12;27.70;18.00
16827;DHT22;8530;49.540;8.576;2023-06-04T09:28:40;27.70;18.00
16827;DHT22;8530;49.540;8.576;2023-06-04T09:31:08;27.60;18.00
16827;DHT22;8530;49.540;8.576;2023-06-04T09:33:42;27.50;18.20
16827;DHT22;8530;49.540;8.576;2023-06-04T09:36:09;27.40;18.30
16827;DHT22;8530;49.540;8.576;2023-06-04T09:38:36;27.40;18.30
16827;DHT22;8530;49.540;8.576;2023-06-04T09:41:03;27.40;18.30
16827;DHT22;8530;49.540;8.576;2023-06-04T09:43:32;27.30;18.20
16827;DHT22;8530;49.540;8.576;2023-06-04T09:46:09;27.40;18.20
16827;DHT22;8530;49.540;8.576;2023-06-04T09:48:37;27.40;18.00
16827;DHT22;8530;49.540;8.576;2023-06-04T09:51:08;27.60;18.00
16827;DHT22;8530;49.540;8.576;2023-06-04T09:53:36;27.70;17.90
16827;DHT22;8530;49.540;8.576;2023-06-04T09:56:04;27.90;17.90
16827;DHT22;8530;49.540;8.576;2023-06-04T09:58:33;28.10;17.80
16827;DHT22;8530;49.540;8.576;2023-06-04T10:01:01;28.20;17.70
16827;DHT22;8530;49.540;8.576;2023-06-04T10:03:31;28.20;17.60
16827;DHT22;8530;49.540;8.576;2023-06-04T10:05:59;28.40;17.60
16827;DHT22;8530;49.540;8.576;2023-06-04T10:08:27;28.40;17.30
16827;DHT22;8530;49.540;8.576;2023-06-04T10:10:56;28.40;17.20
16827;DHT22;8530;49.540;8.576;2023-06-04T10:13:26;28.40;17.00
16827;DHT22;8530;49.540;8.576;2023-06-04T10:15:56;28.30;17.00
16827;DHT22;8530;49.540;8.576;2023-06-04T10:18:24;28.20;16.90
16827;DHT22;8530;49.540;8.576;2023-06-04T10:20:53;27.90;16.90
16827;DHT22;8530;49.540;8.576;2023-06-04T10:23:21;27.70;16.90
16827;DHT22;8530;49.540;8.576;2023-06-04T10:25:49;27.50;17.00
16827;DHT22;8530;49.540;8.576;2023-06-04T10:28:18;27.50;17.10
16827;DHT22;8530;49.540;8.576;2023-06-04T10:30:44;27.50;17.10
16827;DHT22;8530;49.540;8.576;2023-06-04T10:33:13;27.50;17.10
16827;DHT22;8530;49.540;8.576;2023-06-04T10:35:41;27.60;17.20
16827;DHT22;8530;49.540;8.576;2023-06-04T10:38:09;27.70;17.10
16827;DHT22;8530;49.540;8.576;2023-06-04T10:40:37;27.90;17.00
16827;DHT22;8530;49.540;8.576;2023-06-04T10:43:07;28.10;16.90
16827;DHT22;8530;49.540;8.576;2023-06-04T10:45:34;28.20;16.90
16827;DHT22;8530;49.540;8.576;2023-06-04T10:48:02;28.50;16.80
16827;DHT22;8530;49.540;8.576;2023-06-04T10:50:31;28.60;16.50
16827;DHT22;8530;49.540;8.576;2023-06-04T10:52:58;28.80;16.40
16827;DHT22;8530;49.540;8.576;2023-06-04T10:55:28;29.00;16.30
16827;DHT22;8530;49.540;8.576;2023-06-04T10:57:56;29.10;16.20
16827;DHT22;8530;49.540;8.576;2023-06-04T11:00:34;29.20;16.10
16827;DHT22;8530;49.540;8.576;2023-06-04T11:03:01;29.20;15.90
16827;DHT22;8530;49.540;8.576;2023-06-04T11:05:35;29.20;15.90
16827;DHT22;8530;49.540;8.576;2023-06-04T11:08:02;29.20;15.90
16827;DHT22;8530;49.540;8.576;2023-06-04T11:10:32;29.30;15.90
16827;DHT22;8530;49.540;8.576;2023-06-04T11:13:00;29.30;15.80
16827;DHT22;8530;49.540;8.576;2023-06-04T11:15:27;29.20;15.80
16827;DHT22;8530;49.540;8.576;2023-06-04T11:18:03;29.20;15.90
16827;DHT22;8530;49.540;8.576;2023-06-04T11:20:30;29.00;15.80
16827;DHT22;8530;49.540;8.576;2023-06-04T11:22:59;28.80;15.90
16827;DHT22;8530;49.540;8.576;2023-06-04T11:25:29;28.70;16.10
16827;DHT22;8530;49.540;8.576;2023-06-04T11:27:56;28.60;16.20
16827;DHT22;8530;49.540;8.576;2023-06-04T11:30:24;28.80;16.20
16827;DHT22;8530;49.540;8.576;2023-06-04T11:32:59;28.70;16.00
16827;DHT22;8530;49.540;8.576;2023-06-04T11:35:26;28.60;16.10
16827;DHT22;8530;49.540;8.576;2023-06-04T11:37:53;28.70;16.10
16827;DHT22;8530;49.540;8.576;2023-06-04T11:40:22;28.90;16.10
16827;DHT22;8530;49.540;8.576;2023-06-04T11:42:50;29.10;15.90
16827;DHT22;8530;49.540;8.576;2023-06-04T11:45:18;29.30;15.80
16827;DHT22;8530;49.540;8.576;2023-06-04T11:47:47;29.20;15.60
16827;DHT22;8530;49.540;8.576;2023-06-04T11:50:14;29.10;15.60
16827;DHT22;8530;49.540;8.576;2023-06-04T11:52:41;29.10;15.70
16827;DHT22;8530;49.540;8.576;2023-06-04T11:55:08;29.20;15.70
16827;DHT22;8530;49.540;8.576;2023-06-04T11:57:37;29.20;15.60
16827;DHT22;8530;49.540;8.576;2023-06-04T12:00:05;29.20;15.50
16827;DHT22;8530;49.540;8.576;2023-06-04T12:02:35;29.10;15.50
16827;DHT22;8530;49.540;8.576;2023-06-04T12:05:11;29.30;15.70
16827;DHT22;8530;49.540;8.576;2023-06-04T12:07:37;29.40;15.60
16827;DHT22;8530;49.540;8.576;2023-06-04T12:10:07;29.40;15.70
16827;DHT22;8530;49.540;8.576;2023-06-04T12:12:36;29.30;15.70
16827;DHT22;8530;49.540;8.576;2023-06-04T12:15:04;29.20;15.60
16827;DHT22;8530;49.540;8.576;2023-06-04T12:17:31;29.00;15.60
16827;DHT22;8530;49.540;8.576;2023-06-04T12:19:58;29.00;15.70
16827;DHT22;8530;49.540;8.576;2023-06-04T12:22:25;29.00;15.60
16827;DHT22;8530;49.540;8.576;2023-06-04T12:24:54;29.10;15.70
16827;DHT22;8530;49.540;8.576;2023-06-04T12:27:21;29.10;15.70
16827;DHT22;8530;49.540;8.576;2023-06-04T12:29:56;29.10;15.80
16827;DHT22;8530;49.540;8.576;2023-06-04T12:32:24;29.10;15.90
16827;DHT22;8530;49.540;8.576;2023-06-04T12:34:51;29.20;15.80
16827;DHT22;8530;49.540;8.576;2023-06-04T12:37:17;29.20;15.80
16827;DHT22;8530;49.540;8.576;2023-06-04T12:39:45;29.10;15.80
16827;DHT22;8530;49.540;8.576;2023-06-04T12:42:12;29.20;15.90
16827;DHT22;8530;49.540;8.576;2023-06-04T12:44:39;29.30;15.80
16827;DHT22;8530;49.540;8.576;2023-06-04T12:47:08;29.20;15.80
16827;DHT22;8530;49.540;8.576;2023-06-04T12:49:34;29.20;15.90
16827;DHT22;8530;49.540;8.576;2023-06-04T12:52:01;29.10;16.00
16827;DHT22;8530;49.540;8.576;2023-06-04T12:54:28;29.10;16.10
16827;DHT22;8530;49.540;8.576;2023-06-04T12:56:55;29.00;16.10
16827;DHT22;8530;49.540;8.576;2023-06-04T12:59:22;29.00;16.00
16827;DHT22;8530;49.540;8.576;2023-06-04T13:01:49;29.00;16.00
16827;DHT22;8530;49.540;8.576;2023-06-04T13:04:17;29.00;15.90
16827;DHT22;8530;49.540;8.576;2023-06-04T13:06:44;29.00;15.80
16827;DHT22;8530;49.540;8.576;2023-06-04T13:09:13;29.00;15.80
16827;DHT22;8530;49.540;8.576;2023-06-04T13:11:41;29.00;15.80
16827;DHT22;8530;49.540;8.576;2023-06-04T13:14:09;29.00;15.70
16827;DHT22;8530;49.540;8.576;2023-06-04T13:16:37;28.90;15.70
16827;DHT22;8530;49.540;8.576;2023-06-04T13:19:05;28.80;15.60
16827;DHT22;8530;49.540;8.576;2023-06-04T13:21:33;28.70;15.60
16827;DHT22;8530;49.540;8.576;2023-06-04T13:24:00;28.70;15.70
16827;DHT22;8530;49.540;8.576;2023-06-04T13:26:27;28.70;15.60
16827;DHT22;8530;49.540;8.576;2023-06-04T13:28:53;28.80;15.60
16827;DHT22;8530;49.540;8.576;2023-06-04T13:31:20;28.80;15.60
16827;DHT22;8530;49.540;8.576;2023-06-04T13:33:47;28.70;15.40
16827;DHT22;8530;49.540;8.576;2023-06-04T13:36:13;28.70;15.40
16827;DHT22;8530;49.540;8.576;2023-06-04T13:38:41;28.70;15.30
16827;DHT22;8530;49.540;8.576;2023-06-04T13:41:09;28.70;15.30
16827;DHT22;8530;49.540;8.576;2023-06-04T13:43:36;28.80;15.30
16827;DHT22;8530;49.540;8.576;2023-06-04T13:46:04;28.80;15.20
16827;DHT22;8530;49.540;8.576;2023-06-04T13:48:31;28.80;15.10
16827;DHT22;8530;49.540;8.576;2023-06-04T13:50:58;28.90;15.10
16827;DHT22;8530;49.540;8.576;2023-06-04T13:53:24;29.00;15.40
16827;DHT22;8530;49.540;8.576;2023-06-04T13:55:52;28.90;14.80
16827;DHT22;8530;49.540;8.576;2023-06-04T13:58:23;28.90;14.70
16827;DHT22;8530;49.540;8.576;2023-06-04T14:00:50;28.90;14.60
16827;DHT22;8530;49.540;8.576;2023-06-04T14:03:17;28.90;14.60
16827;DHT22;8530;49.540;8.576;2023-06-04T14:05:44;28.90;14.70
16827;DHT22;8530;49.540;8.576;2023-06-04T14:08:10;28.90;14.60
16827;DHT22;8530;49.540;8.576;2023-06-04T14:10:38;28.90;14.60
16827;DHT22;8530;49.540;8.576;2023-06-04T14:13:08;29.00;14.70
16827;DHT22;8530;49.540;8.576;2023-06-04T14:15:35;29.00;14.70
16827;DHT22;8530;49.540;8.576;2023-06-04T14:18:02;28.90;14.70
16827;DHT22;8530;49.540;8.576;2023-06-04T14:20:29;28.80;14.70
16827;DHT22;8530;49.540;8.576;2023-06-04T14:22:56;28.80;14.70
16827;DHT22;8530;49.540;8.576;2023-06-04T14:25:23;28.70;14.70
16827;DHT22;8530;49.540;8.576;2023-06-04T14:27:49;28.60;14.70
16827;DHT22;8530;49.540;8.576;2023-06-04T14:30:17;28.50;14.70
16827;DHT22;8530;49.540;8.576;2023-06-04T14:32:44;28.60;14.90
16827;DHT22;8530;49.540;8.576;2023-06-04T14:35:11;28.60;14.90
16827;DHT22;8530;49.540;8.576;2023-06-04T14:37:37;28.60;15.00
16827;DHT22;8530;49.540;8.576;2023-06-04T14:40:05;28.60;15.00
16827;DHT22;8530;49.540;8.576;2023-06-04T14:42:32;28.70;15.10
16827;DHT22;8530;49.540;8.576;2023-06-04T14:44:58;28.70;15.10
16827;DHT22;8530;49.540;8.576;2023-06-04T14:47:27;28.70;15.10
16827;DHT22;8530;49.540;8.576;2023-06-04T14:49:53;28.60;15.00
16827;DHT22;8530;49.540;8.576;2023-06-04T14:52:20;28.60;15.10
16827;DHT22;8530;49.540;8.576;2023-06-04T14:54:47;28.60;15.10
16827;DHT22;8530;49.540;8.576;2023-06-04T14:57:13;28.70;15.10
16827;DHT22;8530;49.540;8.576;2023-06-04T14:59:41;28.80;15.10
16827;DHT22;8530;49.540;8.576;2023-06-04T15:02:09;28.90;15.10
16827;DHT22;8530;49.540;8.576;2023-06-04T15:04:37;28.90;15.10
16827;DHT22;8530;49.540;8.576;2023-06-04T15:07:08;29.00;15.50
16827;DHT22;8530;49.540;8.576;2023-06-04T15:09:35;29.00;15.10
16827;DHT22;8530;49.540;8.576;2023-06-04T15:12:02;28.90;15.00
16827;DHT22;8530;49.540;8.576;2023-06-04T15:14:28;28.80;15.00
16827;DHT22;8530;49.540;8.576;2023-06-04T15:16:55;28.70;15.00
16827;DHT22;8530;49.540;8.576;2023-06-04T15:19:22;28.70;15.20
16827;DHT22;8530;49.540;8.576;2023-06-04T15:21:50;28.70;15.20
16827;DHT22;8530;49.540;8.576;2023-06-04T15:24:16;28.70;15.20
16827;DHT22;8530;49.540;8.576;2023-06-04T15:26:43;28.70;15.20
16827;DHT22;8530;49.540;8.576;2023-06-04T15:29:11;28.70;15.20
16827;DHT22;8530;49.540;8.576;2023-06-04T15:31:38;28.80;15.30
16827;DHT22;8530;49.540;8.576;2023-06-04T15:34:05;28.80;15.30
16827;DHT22;8530;49.540;8.576;2023-06-04T15:36:31;28.80;15.20
16827;DHT22;8530;49.540;8.576;2023-06-04T15:39:01;28.70;15.00
16827;DHT22;8530;49.540;8.576;2023-06-04T15:41:27;28.60;15.00
16827;DHT22;8530;49.540;8.576;2023-06-04T15:43:54;28.60;15.00
16827;DHT22;8530;49.540;8.576;2023-06-04T15:46:23;28.60;15.10
16827;DHT22;8530;49.540;8.576;2023-06-04T15:48:50;28.50;15.10
16827;DHT22;8530;49.540;8.576;2023-06-04T15:51:17;28.50;15.20